Time;durP1;ratioP1;P1;durP2;ratioP2;P2;SDS_P1;SDS_P2;PMS_P1;PMS_P2;Temp;Humidity;BMP_temperature;BMP_pressure;BME280_temperature;BME280_humidity;BME280_pressure;Samples;Min_cycle;Max_cycle;Signal;HPM_P1;HPM_P2
2022/02/04 00:06:12;;;;;;;44.63;17.23;;;;;;;;;;5068262;28;20480;-64
2022/02/04 00:24:45;;;;;;;62.13;28.83;;;;;;;;;;5067739;28;20029;-62
2022/02/04 00:27:17;;;;;;;60.70;29.27;;;;;;;;;;5067593;28;20029;-64
2022/02/04 00:30:01;;;;;;;70.03;32.08;;;;;;;;;;5067730;28;20068;-63
2022/02/04 00:32:30;;;;;;;69.13;31.38;;;;;;;;;;5067656;28;20047;-65
2022/02/04 00:35:13;;;;;;;60.20;27.27;;;;;;;;;;5067535;28;20492;-62
2022/02/04 00:40:34;;;;;;;45.72;20.52;;;;;;;;;;5045528;28;20176;-63
2022/02/04 00:43:04;;;;;;;23.40;11.90;;;;;;;;;;5045133;28;20575;-62
2022/02/04 00:45:41;;;;;;;41.05;17.35;;;;;;;;;;5044722;28;20059;-63
2022/02/04 00:53:43;;;;;;;39.08;16.42;;;;;;;;;;5045188;28;20913;-63
2022/02/04 01:28:24;;;;;;;23.88;11.18;;;;;;;;;;5053431;28;20476;-64
2022/02/04 01:30:50;;;;;;;27.27;11.50;;;;;;;;;;5053608;28;20021;-64
2022/02/04 01:33:16;;;;;;;28.80;11.38;;;;;;;;;;5053175;28;20032;-64
2022/02/04 01:35:43;;;;;;;29.60;12.05;;;;;;;;;;5053610;28;20029;-65
2022/02/04 01:38:09;;;;;;;31.35;14.73;;;;;;;;;;5053379;28;20106;-64
2022/02/04 01:40:35;;;;;;;35.80;16.35;;;;;;;;;;5053088;28;20033;-63
2022/02/04 01:43:01;;;;;;;36.03;18.25;;;;;;;;;;5052975;28;20025;-63
2022/02/04 01:45:27;;;;;;;43.33;18.38;;;;;;;;;;5052725;28;20516;-64
2022/02/04 01:47:56;;;;;;;29.38;14.43;;;;;;;;;;5052917;28;20033;-64
2022/02/04 01:50:26;;;;;;;35.75;15.68;;;;;;;;;;5052653;28;20029;-64
2022/02/04 01:52:53;;;;;;;31.70;15.68;;;;;;;;;;5052577;28;20110;-64
2022/02/04 01:55:20;;;;;;;35.38;15.43;;;;;;;;;;5052776;28;20206;-63
2022/02/04 01:57:46;;;;;;;30.60;14.20;;;;;;;;;;5052500;28;20029;-64
2022/02/04 02:00:12;;;;;;;28.65;12.75;;;;;;;;;;5052521;28;20483;-63
2022/02/04 02:02:38;;;;;;;27.10;12.40;;;;;;;;;;5052807;28;20033;-63
2022/02/04 02:05:04;;;;;;;26.85;12.68;;;;;;;;;;5052398;28;20036;-63
2022/02/04 02:07:39;;;;;;;24.08;11.05;;;;;;;;;;5052722;28;20067;-64
2022/02/04 02:10:10;;;;;;;18.67;9.32;;;;;;;;;;5051633;28;20178;-63
2022/02/04 02:15:35;;;;;;;18.67;9.10;;;;;;;;;;5052517;28;20079;-63
2022/02/04 02:40:53;;;;;;;21.33;10.52;;;;;;;;;;5029975;28;20045;-62
2022/02/04 03:03:07;;;;;;;19.40;9.18;;;;;;;;;;5031153;28;20064;-64
2022/02/04 03:05:34;;;;;;;20.30;9.48;;;;;;;;;;5013915;28;20037;-64
2022/02/04 03:08:00;;;;;;;19.90;9.50;;;;;;;;;;5029437;28;20176;-63
2022/02/04 03:10:26;;;;;;;23.80;10.07;;;;;;;;;;5028976;28;20041;-64
2022/02/04 03:12:53;;;;;;;21.52;9.48;;;;;;;;;;5029029;28;20041;-64
2022/02/04 03:15:20;;;;;;;21.08;10.27;;;;;;;;;;5029073;28;20451;-64
2022/02/04 03:17:50;;;;;;;16.23;8.93;;;;;;;;;;5048709;28;20025;-64
2022/02/04 03:20:17;;;;;;;20.75;10.02;;;;;;;;;;5051237;28;20472;-68
2022/02/04 03:22:46;;;;;;;27.90;11.65;;;;;;;;;;5051335;28;20025;-64
2022/02/04 03:25:13;;;;;;;22.52;11.40;;;;;;;;;;5051057;28;20045;-64
2022/02/04 03:27:46;;;;;;;21.92;11.88;;;;;;;;;;5050094;28;20401;-64
2022/02/04 03:30:20;;;;;;;29.23;13.40;;;;;;;;;;5050045;28;20079;-64
2022/02/04 03:32:54;;;;;;;29.70;14.35;;;;;;;;;;5051425;28;20025;-64
2022/02/04 03:35:22;;;;;;;29.95;13.07;;;;;;;;;;5051426;28;20025;-65
2022/02/04 03:37:49;;;;;;;31.50;13.40;;;;;;;;;;5051239;28;20025;-64
2022/02/04 03:40:15;;;;;;;27.90;13.13;;;;;;;;;;5051369;28;20032;-65
2022/02/04 03:42:41;;;;;;;27.65;13.05;;;;;;;;;;5051015;28;20029;-64
2022/02/04 03:45:07;;;;;;;27.77;12.90;;;;;;;;;;5050911;28;20508;-64
2022/02/04 03:47:33;;;;;;;24.27;11.45;;;;;;;;;;5051191;28;20057;-64
2022/02/04 03:50:00;;;;;;;22.35;10.52;;;;;;;;;;5050950;28;20060;-63
2022/02/04 03:52:26;;;;;;;27.05;11.65;;;;;;;;;;5051270;28;20033;-64
2022/02/04 03:54:52;;;;;;;25.77;12.25;;;;;;;;;;5051276;28;20064;-65
2022/02/04 03:57:18;;;;;;;25.92;12.02;;;;;;;;;;5050977;28;20029;-64
2022/02/04 03:59:44;;;;;;;31.48;13.55;;;;;;;;;;5051119;28;20021;-64
2022/02/04 04:02:10;;;;;;;25.55;12.00;;;;;;;;;;5051309;28;20064;-64
2022/02/04 04:04:36;;;;;;;24.83;12.23;;;;;;;;;;5050933;28;20080;-64
2022/02/04 04:07:02;;;;;;;20.73;9.18;;;;;;;;;;5050885;28;20041;-65
2022/02/04 04:09:29;;;;;;;20.20;9.00;;;;;;;;;;5051180;28;20021;-65
2022/02/04 04:11:55;;;;;;;23.92;10.77;;;;;;;;;;5050913;28;20028;-64
2022/02/04 04:14:21;;;;;;;21.25;9.20;;;;;;;;;;5050837;28;20512;-64
2022/02/04 04:16:48;;;;;;;20.60;8.93;;;;;;;;;;5050659;28;20071;-65
2022/02/04 04:19:14;;;;;;;19.30;7.75;;;;;;;;;;5050712;28;20021;-64
2022/02/04 04:21:41;;;;;;;15.20;8.25;;;;;;;;;;5050720;28;20021;-65
2022/02/04 04:24:07;;;;;;;16.80;7.15;;;;;;;;;;5050740;28;20029;-64
2022/02/04 04:26:33;;;;;;;18.95;8.35;;;;;;;;;;5050582;28;20499;-64
2022/02/04 04:28:59;;;;;;;18.10;8.18;;;;;;;;;;5050644;28;20021;-64
2022/02/04 04:31:25;;;;;;;21.02;9.43;;;;;;;;;;5050667;28;20032;-65
2022/02/04 04:33:51;;;;;;;21.20;9.63;;;;;;;;;;5054400;28;20131;-64
2022/02/04 04:36:19;;;;;;;22.88;9.70;;;;;;;;;;5054305;28;20025;-65
2022/02/04 04:38:52;;;;;;;22.73;10.75;;;;;;;;;;5054132;28;20029;-65
2022/02/04 05:28:15;;;;;;;25.85;12.55;;;;;;;;;;5053400;28;20036;-64
2022/02/04 05:30:41;;;;;;;27.75;12.65;;;;;;;;;;5053557;28;20032;-64
2022/02/04 05:33:07;;;;;;;24.85;12.05;;;;;;;;;;5053334;28;20024;-64
2022/02/04 05:35:34;;;;;;;23.05;11.90;;;;;;;;;;5053455;28;20033;-65
2022/02/04 05:38:02;;;;;;;30.67;13.48;;;;;;;;;;5052995;28;20031;-65
2022/02/04 05:40:31;;;;;;;25.05;11.82;;;;;;;;;;5053199;28;20107;-64
2022/02/04 05:43:03;;;;;;;23.10;11.57;;;;;;;;;;5053015;28;20461;-64
2022/02/04 05:45:34;;;;;;;25.10;11.52;;;;;;;;;;5053025;28;20055;-64
2022/02/04 05:48:04;;;;;;;25.02;11.85;;;;;;;;;;5051792;28;20036;-64
2022/02/04 06:22:53;;;;;;;24.88;11.75;;;;;;;;;;4971464;28;20086;-64
2022/02/04 06:25:19;;;;;;;24.75;11.65;;;;;;;;;;4971350;28;20043;-64
2022/02/04 06:27:46;;;;;;;20.45;10.65;;;;;;;;;;4971505;28;20034;-64
2022/02/04 06:30:13;;;;;;;20.33;10.05;;;;;;;;;;4971260;28;20454;-65
2022/02/04 06:32:39;;;;;;;21.83;10.57;;;;;;;;;;4971146;28;20035;-64
2022/02/04 06:35:07;;;;;;;23.10;11.15;;;;;;;;;;4970957;28;20483;-63
2022/02/04 06:37:33;;;;;;;25.23;12.43;;;;;;;;;;4977496;28;20042;-64
2022/02/04 06:39:59;;;;;;;23.33;12.50;;;;;;;;;;4990441;28;20058;-64
2022/02/04 06:42:26;;;;;;;26.38;13.23;;;;;;;;;;4990172;28;20117;-63
2022/02/04 06:44:52;;;;;;;29.88;14.38;;;;;;;;;;5048190;28;20055;-64
2022/02/04 06:47:18;;;;;;;41.67;17.15;;;;;;;;;;5051677;28;20484;-64
2022/02/04 06:49:45;;;;;;;36.33;17.42;;;;;;;;;;5050098;28;20037;-63
2022/02/04 06:52:11;;;;;;;36.78;17.38;;;;;;;;;;5051501;28;20108;-64
2022/02/04 06:54:38;;;;;;;35.67;17.83;;;;;;;;;;5051148;28;20053;-64
2022/02/04 06:57:04;;;;;;;45.05;19.50;;;;;;;;;;5051747;28;20029;-64
2022/02/04 06:59:30;;;;;;;43.72;20.38;;;;;;;;;;5051213;28;20027;-64
2022/02/04 07:01:56;;;;;;;42.92;20.50;;;;;;;;;;5051625;28;20104;-64
2022/02/04 07:04:24;;;;;;;42.45;19.40;;;;;;;;;;5050500;28;20036;-64
2022/02/04 07:06:55;;;;;;;35.83;18.42;;;;;;;;;;5051514;28;20415;-62
2022/02/04 07:14:35;;;;;;;28.52;14.45;;;;;;;;;;5032598;28;20030;-64
2022/02/04 07:17:16;;;;;;;31.23;14.52;;;;;;;;;;5031328;28;20365;-64
2022/02/04 07:22:14;;;;;;;30.60;15.68;;;;;;;;;;5035700;28;20033;-64
2022/02/04 07:24:40;;;;;;;33.38;16.25;;;;;;;;;;5042686;28;20032;-63
2022/02/04 07:27:10;;;;;;;31.15;16.95;;;;;;;;;;5049409;28;20516;-63
2022/02/04 07:29:37;;;;;;;32.78;15.07;;;;;;;;;;5044380;28;20021;-63
2022/02/04 07:32:09;;;;;;;34.65;16.08;;;;;;;;;;5051373;28;20037;-64
2022/02/04 07:42:36;;;;;;;28.52;14.48;;;;;;;;;;5050097;28;20036;-63
2022/02/04 07:45:05;;;;;;;27.13;13.05;;;;;;;;;;5040300;28;20090;-63
2022/02/04 07:47:33;;;;;;;32.03;14.32;;;;;;;;;;5045556;28;20024;-64
2022/02/04 07:49:59;;;;;;;31.80;15.25;;;;;;;;;;5041564;28;20455;-64
2022/02/04 07:52:25;;;;;;;30.08;15.75;;;;;;;;;;5050405;28;20025;-64
2022/02/04 07:54:51;;;;;;;30.33;15.10;;;;;;;;;;5051022;28;20070;-64
2022/02/04 07:57:18;;;;;;;33.80;16.17;;;;;;;;;;5051540;28;20056;-64
2022/02/04 07:59:47;;;;;;;35.03;16.42;;;;;;;;;;5050317;28;20530;-64
2022/02/04 08:02:13;;;;;;;50.67;24.67;;;;;;;;;;5050596;28;20107;-64
2022/02/04 08:04:41;;;;;;;50.58;25.45;;;;;;;;;;5050742;28;20017;-64
2022/02/04 08:07:09;;;;;;;38.63;19.35;;;;;;;;;;5050459;28;20443;-63
2022/02/04 08:09:55;;;;;;;39.45;18.55;;;;;;;;;;5054925;28;20017;-62
2022/02/04 08:20:30;;;;;;;52.15;24.38;;;;;;;;;;5056085;28;20025;-63
2022/02/04 08:33:40;;;;;;;47.20;24.63;;;;;;;;;;5055120;28;20045;-64
2022/02/04 08:39:09;;;;;;;50.25;23.15;;;;;;;;;;5053826;28;20149;-64
2022/02/04 08:47:27;;;;;;;47.80;21.73;;;;;;;;;;5052384;28;20088;-65
2022/02/04 08:55:26;;;;;;;43.78;21.45;;;;;;;;;;5053509;28;20065;-63
2022/02/04 08:57:53;;;;;;;51.35;23.00;;;;;;;;;;5052433;28;20425;-64
2022/02/04 09:00:35;;;;;;;;;;;;;;;;;;5053657;28;20120;-64
2022/02/04 09:03:13;;;;;;;46.72;22.13;;;;;;;;;;5053595;28;19908;-62
2022/02/04 09:05:42;;;;;;;37.90;19.58;;;;;;;;;;5053731;28;20117;-62
2022/02/04 09:10:36;;;;;;;34.80;17.15;;;;;;;;;;5053473;28;20078;-63
2022/02/04 09:23:27;;;;;;;45.70;20.17;;;;;;;;;;5053350;28;20048;-64
2022/02/04 09:25:53;;;;;;;41.50;20.75;;;;;;;;;;5053440;28;20061;-63
2022/02/04 09:28:19;;;;;;;42.47;18.73;;;;;;;;;;5053344;28;20017;-65
2022/02/04 09:30:45;;;;;;;35.75;17.13;;;;;;;;;;5053333;28;20021;-64
2022/02/04 09:33:12;;;;;;;30.75;15.65;;;;;;;;;;5053115;28;20044;-64
2022/02/04 09:35:39;;;;;;;37.17;13.60;;;;;;;;;;5053141;28;20522;-64
2022/02/04 09:38:06;;;;;;;33.05;14.40;;;;;;;;;;5052701;28;20080;-64
2022/02/04 09:40:32;;;;;;;32.05;15.32;;;;;;;;;;5053080;28;20032;-64
2022/02/04 09:42:58;;;;;;;37.55;15.55;;;;;;;;;;5053041;28;20025;-64
2022/02/04 09:45:26;;;;;;;29.45;13.38;;;;;;;;;;5052650;28;20049;-64
2022/02/04 09:47:57;;;;;;;31.25;13.52;;;;;;;;;;5052422;28;20020;-64
2022/02/04 09:50:25;;;;;;;24.10;11.63;;;;;;;;;;5052621;28;20029;-63
2022/02/04 10:15:38;;;;;;;20.73;9.23;;;;;;;;;;5052165;28;20044;-64
2022/02/04 10:18:06;;;;;;;22.92;8.95;;;;;;;;;;5052196;28;20047;-64
2022/02/04 10:20:33;;;;;;;23.92;8.90;;;;;;;;;;5052342;28;20044;-64
2022/02/04 10:23:00;;;;;;;16.05;9.25;;;;;;;;;;5052126;28;20027;-64
2022/02/04 10:25:31;;;;;;;17.52;8.73;;;;;;;;;;5052110;28;20032;-64
2022/02/04 10:27:57;;;;;;;24.85;10.70;;;;;;;;;;5052153;28;20399;-64
2022/02/04 10:30:23;;;;;;;23.30;9.85;;;;;;;;;;5049861;28;20045;-64
2022/02/04 10:32:50;;;;;;;29.75;11.38;;;;;;;;;;5052042;28;20032;-64
2022/02/04 10:35:19;;;;;;;33.22;12.30;;;;;;;;;;5051844;28;20029;-64
2022/02/04 10:38:32;;;;;;;25.38;10.30;;;;;;;;;;5051689;28;20021;-64
2022/02/04 10:46:00;;;;;;;14.68;6.40;;;;;;;;;;5051666;28;20087;-64
2022/02/04 10:51:36;;;;;;;14.93;7.10;;;;;;;;;;5051631;28;20072;-64
2022/02/04 10:57:10;;;;;;;19.30;8.15;;;;;;;;;;5051841;28;20118;-63
2022/02/04 11:05:46;;;;;;;18.05;8.20;;;;;;;;;;5051490;28;20031;-63
2022/02/04 11:08:11;;;;;;;17.92;8.65;;;;;;;;;;5051196;28;20036;-63
2022/02/04 11:34:04;;;;;;;17.48;7.68;;;;;;;;;;4893870;29;20215;-65
2022/02/04 11:55:11;;;;;;;20.48;8.52;;;;;;;;;;4841695;29;20405;-64
2022/02/04 11:57:50;;;;;;;19.65;8.95;;;;;;;;;;4856183;29;20049;-65
2022/02/04 12:00:16;;;;;;;21.70;9.10;;;;;;;;;;4856079;29;20038;-65
2022/02/04 12:02:43;;;;;;;19.80;8.00;;;;;;;;;;4917528;29;20054;-64
2022/02/04 12:05:11;;;;;;;16.05;8.38;;;;;;;;;;4976398;28;20054;-65
2022/02/04 12:07:37;;;;;;;19.20;8.52;;;;;;;;;;4988721;28;20073;-70
2022/02/04 12:10:04;;;;;;;20.17;9.05;;;;;;;;;;4988540;28;20058;-66
2022/02/04 12:12:49;;;;;;;19.92;9.23;;;;;;;;;;4988303;28;20033;-65
2022/02/04 12:15:34;;;;;;;23.42;9.90;;;;;;;;;;4988674;28;20046;-64
2022/02/04 12:18:26;;;;;;;25.75;11.20;;;;;;;;;;4988379;28;20029;-63
2022/02/04 12:20:58;;;;;;;22.55;10.48;;;;;;;;;;4988757;28;20054;-64
2022/02/04 12:23:36;;;;;;;22.63;9.40;;;;;;;;;;4988713;28;20027;-64
2022/02/04 12:26:16;;;;;;;27.80;11.43;;;;;;;;;;4994255;28;20077;-63
2022/02/04 12:28:48;;;;;;;26.02;11.80;;;;;;;;;;5048674;28;20025;-64
2022/02/04 12:31:14;;;;;;;;;;;;;;;;;;5050853;28;20078;-63
2022/02/04 12:33:41;;;;;;;31.50;10.23;;;;;;;;;;5050397;28;19905;-64
2022/02/04 12:36:16;;;;;;;19.35;8.75;;;;;;;;;;5050380;28;20025;-64
2022/02/04 12:38:43;;;;;;;24.85;9.77;;;;;;;;;;5050062;28;20473;-64
2022/02/04 12:41:09;;;;;;;28.70;12.88;;;;;;;;;;5050243;28;20029;-65
2022/02/04 12:43:36;;;;;;;24.13;10.05;;;;;;;;;;5050219;28;20029;-65
2022/02/04 12:46:04;;;;;;;25.52;9.75;;;;;;;;;;5050079;28;20092;-64
2022/02/04 12:48:30;;;;;;;19.40;9.10;;;;;;;;;;5044558;28;20163;-64
2022/02/04 12:50:56;;;;;;;25.02;8.68;;;;;;;;;;5031683;28;20068;-64
2022/02/04 12:53:24;;;;;;;24.38;8.85;;;;;;;;;;5031725;28;20029;-63
2022/02/04 12:56:19;;;;;;;20.75;8.68;;;;;;;;;;5033902;28;20026;-66
2022/02/04 13:09:51;;;;;;;25.45;9.90;;;;;;;;;;5053679;28;20060;-66
2022/02/04 13:12:18;;;;;;;26.00;11.32;;;;;;;;;;5053799;28;20037;-64
2022/02/04 13:14:45;;;;;;;40.70;16.33;;;;;;;;;;5053307;28;20494;-65
2022/02/04 13:17:11;;;;;;;42.67;17.42;;;;;;;;;;5055080;28;20086;-63
2022/02/04 13:19:38;;;;;;;44.35;19.30;;;;;;;;;;5055443;28;20442;-63
2022/02/04 13:22:04;;;;;;;30.88;12.77;;;;;;;;;;5054511;28;20029;-63
2022/02/04 13:24:30;;;;;;;35.17;14.07;;;;;;;;;;5053233;28;20075;-62
2022/02/04 13:26:56;;;;;;;24.67;10.45;;;;;;;;;;5054543;28;20475;-65
2022/02/04 13:29:26;;;;;;;22.15;9.30;;;;;;;;;;5053027;28;20112;-63
2022/02/04 13:31:52;;;;;;;20.70;8.90;;;;;;;;;;5053321;28;20484;-62
2022/02/04 13:34:25;;;;;;;20.48;9.10;;;;;;;;;;5053081;28;20029;-64
2022/02/04 13:37:00;;;;;;;18.45;8.77;;;;;;;;;;5053858;28;20024;-64
2022/02/04 13:44:45;;;;;;;20.90;9.85;;;;;;;;;;5052960;28;20037;-64
2022/02/04 13:50:12;;;;;;;27.80;10.82;;;;;;;;;;5043676;28;20042;-63
2022/02/04 13:57:55;;;;;;;23.48;11.32;;;;;;;;;;5042010;28;20018;-65
2022/02/04 14:02:57;;;;;;;30.77;13.20;;;;;;;;;;5042401;28;20051;-64
2022/02/04 14:05:23;;;;;;;;;;;;;;;;;;5051104;28;20029;-67
2022/02/04 14:07:55;;;;;;;25.45;11.32;;;;;;;;;;5051516;28;19916;-65
2022/02/04 14:10:25;;;;;;;;;;;;;;;;;;5048654;28;20717;-64
2022/02/04 14:13:02;;;;;;;28.45;12.57;;;;;;;;;;5043152;28;19921;-65
2022/02/04 14:15:29;;;;;;;27.75;13.00;;;;;;;;;;5037249;28;20029;-65
2022/02/04 14:17:59;;;;;;;27.08;13.13;;;;;;;;;;5039352;28;20032;-64
2022/02/04 14:20:25;;;;;;;26.95;11.90;;;;;;;;;;5041480;28;20021;-63
2022/02/04 14:22:52;;;;;;;28.85;11.75;;;;;;;;;;5048273;28;20040;-64
2022/02/04 14:25:19;;;;;;;28.38;11.82;;;;;;;;;;5039095;28;20018;-64
2022/02/04 14:27:56;;;;;;;23.73;12.23;;;;;;;;;;5039034;28;20147;-65
2022/02/04 14:30:27;;;;;;;24.05;11.32;;;;;;;;;;5042560;28;20021;-65
2022/02/04 14:32:59;;;;;;;21.03;8.43;;;;;;;;;;5042190;28;20063;-64
2022/02/04 14:49:35;;;;;;;27.55;14.20;;;;;;;;;;5027826;28;20051;-65
2022/02/04 15:03:13;;;;;;;36.75;16.98;;;;;;;;;;5026176;28;20515;-66
2022/02/04 15:05:44;;;;;;;36.45;16.70;;;;;;;;;;5028270;28;20052;-64
2022/02/04 15:08:14;;;;;;;40.88;17.15;;;;;;;;;;5029058;28;20025;-65
2022/02/04 15:10:40;;;;;;;33.42;15.80;;;;;;;;;;5028092;28;20048;-65
2022/02/04 15:13:11;;;;;;;35.65;16.20;;;;;;;;;;5025116;28;20041;-65
2022/02/04 15:15:37;;;;;;;45.03;19.55;;;;;;;;;;5030739;28;20068;-64
2022/02/04 15:18:05;;;;;;;50.97;23.42;;;;;;;;;;5035434;28;20033;-65
2022/02/04 15:20:32;;;;;;;46.78;21.40;;;;;;;;;;5025241;28;20071;-65
2022/02/04 15:22:58;;;;;;;50.33;22.23;;;;;;;;;;5040977;28;20029;-65
2022/02/04 15:25:24;;;;;;;52.70;23.75;;;;;;;;;;5043295;28;20017;-64
2022/02/04 15:30:44;;;;;;;50.30;24.77;;;;;;;;;;5038114;28;20032;-65
2022/02/04 15:33:10;;;;;;;59.25;26.48;;;;;;;;;;5039277;28;20092;-65
2022/02/04 15:35:38;;;;;;;60.22;28.27;;;;;;;;;;5021000;28;20033;-64
2022/02/04 15:38:04;;;;;;;62.45;29.58;;;;;;;;;;5038073;28;20025;-64
2022/02/04 15:40:30;;;;;;;63.72;28.73;;;;;;;;;;5036395;28;20029;-64
2022/02/04 15:42:59;;;;;;;55.53;27.00;;;;;;;;;;5037192;28;20040;-64
2022/02/04 15:48:16;;;;;;;49.28;21.85;;;;;;;;;;5037830;28;20512;-65
2022/02/04 16:04:26;;;;;;;46.63;24.17;;;;;;;;;;5038680;28;20035;-64
2022/02/04 16:06:50;;;;;;;46.53;22.00;;;;;;;;;;5036793;28;20061;-63
2022/02/04 16:09:19;;;;;;;44.03;20.92;;;;;;;;;;5039391;28;20021;-64
2022/02/04 16:16:42;;;;;;;58.20;27.27;;;;;;;;;;5039151;28;20033;-64
2022/02/04 16:19:17;;;;;;;54.90;26.07;;;;;;;;;;5038437;28;20463;-64
2022/02/04 16:22:03;;;;;;;53.60;26.95;;;;;;;;;;5038128;28;20029;-64
2022/02/04 16:29:55;;;;;;;50.60;25.10;;;;;;;;;;5040377;28;20445;-64
2022/02/04 16:32:22;;;;;;;51.95;23.77;;;;;;;;;;5043895;28;20025;-64
2022/02/04 16:34:54;;;;;;;45.17;23.33;;;;;;;;;;5042318;28;20053;-64
2022/02/04 16:37:28;;;;;;;44.55;23.63;;;;;;;;;;5043287;28;20017;-63
2022/02/04 16:39:55;;;;;;;56.75;25.63;;;;;;;;;;5042843;28;20056;-62
2022/02/04 16:42:21;;;;;;;56.75;26.13;;;;;;;;;;5042425;28;20396;-63
2022/02/04 16:44:47;;;;;;;53.90;25.80;;;;;;;;;;5044190;28;20017;-63
2022/02/04 16:47:13;;;;;;;56.70;25.45;;;;;;;;;;5042301;28;20033;-63
2022/02/04 16:49:39;;;;;;;58.80;27.55;;;;;;;;;;5046797;28;20451;-63
2022/02/04 16:52:06;;;;;;;59.30;27.88;;;;;;;;;;5051585;28;20419;-63
2022/02/04 16:54:37;;;;;;;56.72;28.35;;;;;;;;;;5053783;28;20025;-65
2022/02/04 16:57:03;;;;;;;66.07;30.83;;;;;;;;;;5052818;28;20036;-65
2022/02/04 16:59:30;;;;;;;62.58;31.35;;;;;;;;;;5053721;28;20028;-64
2022/02/04 17:01:57;;;;;;;69.80;32.88;;;;;;;;;;5053908;28;20430;-63
2022/02/04 17:04:23;;;;;;;68.45;33.72;;;;;;;;;;5053590;28;20052;-64
2022/02/04 17:06:57;;;;;;;72.03;34.20;;;;;;;;;;5053692;28;20045;-64
2022/02/04 17:09:28;;;;;;;81.78;39.13;;;;;;;;;;5053341;28;20052;-64
2022/02/04 17:12:03;;;;;;;95.15;43.72;;;;;;;;;;5053225;28;20539;-64
2022/02/04 17:14:30;;;;;;;79.18;36.55;;;;;;;;;;5053239;28;20082;-64
2022/02/04 17:16:56;;;;;;;70.65;32.33;;;;;;;;;;5053530;28;20109;-62
2022/02/04 17:19:27;;;;;;;77.28;32.28;;;;;;;;;;5053559;28;20029;-64
2022/02/04 17:21:54;;;;;;;78.30;34.95;;;;;;;;;;5052893;28;20050;-64
2022/02/04 17:24:22;;;;;;;77.68;35.05;;;;;;;;;;5052921;28;20025;-64
2022/02/04 17:26:48;;;;;;;74.15;34.20;;;;;;;;;;5053238;28;20037;-63
2022/02/04 17:29:14;;;;;;;80.22;33.95;;;;;;;;;;5052984;28;20032;-64
2022/02/04 17:31:40;;;;;;;71.25;34.38;;;;;;;;;;5053069;28;20021;-64
2022/02/04 17:34:07;;;;;;;76.10;35.65;;;;;;;;;;5052556;28;20054;-64
2022/02/04 17:36:37;;;;;;;92.72;39.65;;;;;;;;;;5053074;28;20036;-64
2022/02/04 17:39:12;;;;;;;68.38;32.20;;;;;;;;;;5052557;28;20021;-64
2022/02/04 17:41:40;;;;;;;71.65;34.22;;;;;;;;;;5052792;28;20028;-63
2022/02/04 17:44:06;;;;;;;72.85;32.42;;;;;;;;;;5052817;28;20100;-64
2022/02/04 17:46:32;;;;;;;71.18;32.80;;;;;;;;;;5052504;28;20128;-64
2022/02/04 17:49:09;;;;;;;88.80;36.17;;;;;;;;;;5052583;28;20021;-64
2022/02/04 17:54:07;;;;;;;83.13;36.95;;;;;;;;;;5052607;28;20033;-63
2022/02/04 17:59:47;;;;;;;95.43;41.25;;;;;;;;;;5052596;28;20025;-63
2022/02/04 18:02:33;;;;;;;88.82;40.97;;;;;;;;;;5052346;28;20059;-64
2022/02/04 18:07:50;;;;;;;80.35;37.10;;;;;;;;;;5030119;28;20145;-65
2022/02/04 18:10:16;;;;;;;85.68;39.28;;;;;;;;;;5029827;28;20528;-64
2022/02/04 18:12:42;;;;;;;80.43;37.53;;;;;;;;;;5029856;28;20038;-65
2022/02/04 18:15:09;;;;;;;76.15;34.90;;;;;;;;;;5029809;28;20068;-64
2022/02/04 18:17:35;;;;;;;66.07;32.45;;;;;;;;;;5030072;28;20480;-64
2022/02/04 18:20:02;;;;;;;67.18;31.77;;;;;;;;;;5029916;28;20037;-63
2022/02/04 18:22:28;;;;;;;65.30;32.20;;;;;;;;;;5029879;28;20095;-64
2022/02/04 18:24:56;;;;;;;70.65;33.97;;;;;;;;;;5029454;28;20068;-64
2022/02/04 18:27:22;;;;;;;70.38;34.90;;;;;;;;;;5029488;28;20169;-65
2022/02/04 18:29:54;;;;;;;75.38;35.95;;;;;;;;;;5029734;28;20025;-65
2022/02/04 18:32:22;;;;;;;81.47;38.03;;;;;;;;;;5021138;28;20605;-64
2022/02/04 18:34:49;;;;;;;86.22;39.67;;;;;;;;;;5012246;28;20202;-63
2022/02/04 18:37:15;;;;;;;92.55;43.60;;;;;;;;;;5009710;28;20076;-65
2022/02/04 18:45:09;;;;;;;96.40;46.80;;;;;;;;;;5028099;28;20126;-63
2022/02/04 18:47:56;;;;;;;106.65;50.20;;;;;;;;;;5031804;28;20072;-64
2022/02/04 18:53:14;;;;;;;97.32;48.05;;;;;;;;;;5031811;28;20087;-65
2022/02/04 18:55:57;;;;;;;94.88;44.67;;;;;;;;;;5031633;28;20377;-63
2022/02/04 18:58:27;;;;;;;96.15;44.10;;;;;;;;;;5047719;28;20118;-63
2022/02/04 19:00:56;;;;;;;89.65;42.33;;;;;;;;;;5044615;28;20037;-64
2022/02/04 19:03:29;;;;;;;75.65;38.22;;;;;;;;;;5033722;28;20060;-63
2022/02/04 19:06:10;;;;;;;83.43;38.75;;;;;;;;;;5040322;28;20032;-62
2022/02/04 19:08:42;;;;;;;82.93;37.75;;;;;;;;;;5031354;28;20029;-65
2022/02/04 19:11:09;;;;;;;92.97;40.90;;;;;;;;;;5032420;28;20057;-64
2022/02/04 19:13:43;;;;;;;93.03;40.80;;;;;;;;;;5031639;28;20036;-64
2022/02/04 19:18:59;;;;;;;105.55;47.60;;;;;;;;;;5030823;28;20168;-64
2022/02/04 19:24:11;;;;;;;86.53;41.40;;;;;;;;;;5030945;28;20433;-66
2022/02/04 19:26:38;;;;;;;87.13;41.33;;;;;;;;;;5030951;28;20423;-66
2022/02/04 19:29:04;;;;;;;90.95;42.08;;;;;;;;;;5031022;28;20025;-67
2022/02/04 19:31:38;;;;;;;89.18;40.20;;;;;;;;;;5030561;28;20047;-66
2022/02/04 19:34:06;;;;;;;80.53;37.58;;;;;;;;;;5038400;28;20036;-65
2022/02/04 19:36:32;;;;;;;77.60;38.35;;;;;;;;;;5050917;28;20029;-64
2022/02/04 19:38:58;;;;;;;80.35;38.17;;;;;;;;;;5050751;28;20045;-65
2022/02/04 19:41:27;;;;;;;79.45;36.63;;;;;;;;;;5051008;28;20460;-63
2022/02/04 19:43:56;;;;;;;74.93;35.67;;;;;;;;;;5050802;28;20021;-65
2022/02/04 19:46:27;;;;;;;76.65;36.90;;;;;;;;;;5050325;28;20412;-65
2022/02/04 19:48:56;;;;;;;75.25;36.15;;;;;;;;;;5050548;28;20021;-64
2022/02/04 20:23:50;;;;;;;79.95;39.08;;;;;;;;;;5031638;28;20577;-63
2022/02/04 20:26:16;;;;;;;77.10;37.63;;;;;;;;;;5032105;28;20037;-63
2022/02/04 20:28:43;;;;;;;67.95;35.40;;;;;;;;;;5031936;28;20441;-64
2022/02/04 20:31:09;;;;;;;70.35;36.72;;;;;;;;;;5047273;28;20411;-63
2022/02/04 20:33:35;;;;;;;80.65;41.85;;;;;;;;;;5054176;28;20025;-64
2022/02/04 20:36:01;;;;;;;83.82;40.65;;;;;;;;;;5054697;28;20446;-64
2022/02/04 20:38:40;;;;;;;77.68;37.67;;;;;;;;;;5054571;28;20021;-68
2022/02/04 20:41:10;;;;;;;72.75;35.60;;;;;;;;;;5054427;28;20371;-63
2022/02/04 20:43:36;;;;;;;69.40;34.58;;;;;;;;;;5053828;28;20032;-63
2022/02/04 20:46:03;;;;;;;81.13;36.35;;;;;;;;;;5053905;28;20053;-64
2022/02/04 20:48:34;;;;;;;71.68;34.53;;;;;;;;;;5054700;28;20090;-65
2022/02/04 20:51:01;;;;;;;57.00;27.20;;;;;;;;;;5054329;28;20039;-64
2022/02/04 20:53:28;;;;;;;72.70;36.33;;;;;;;;;;5053375;28;20048;-64
2022/02/04 20:55:54;;;;;;;73.75;35.13;;;;;;;;;;5053816;28;20021;-64
2022/02/04 20:58:20;;;;;;;75.07;36.60;;;;;;;;;;5053565;28;20021;-64
2022/02/04 21:00:46;;;;;;;72.38;35.33;;;;;;;;;;5053975;28;20053;-63
2022/02/04 21:03:13;;;;;;;73.45;35.40;;;;;;;;;;5053628;28;20424;-63
2022/02/04 21:05:53;;;;;;;76.80;36.08;;;;;;;;;;5054054;28;20029;-64
2022/02/04 21:13:50;;;;;;;67.68;33.83;;;;;;;;;;5047590;28;20458;-64
2022/02/04 21:16:18;;;;;;;71.10;34.10;;;;;;;;;;5038866;28;20057;-65
2022/02/04 21:18:44;;;;;;;68.90;34.50;;;;;;;;;;5034187;28;20026;-63
2022/02/04 21:21:12;;;;;;;69.55;33.85;;;;;;;;;;5035044;28;20030;-64
2022/02/04 21:23:40;;;;;;;67.93;32.30;;;;;;;;;;5035295;28;20080;-65
2022/02/04 21:26:07;;;;;;;69.28;32.70;;;;;;;;;;5052703;28;20044;-64
2022/02/04 21:28:33;;;;;;;62.03;30.98;;;;;;;;;;5051694;28;20029;-64
2022/02/04 21:31:00;;;;;;;62.15;29.90;;;;;;;;;;5040674;28;20025;-63
2022/02/04 21:38:47;;;;;;;61.97;29.67;;;;;;;;;;5038365;28;20087;-64
2022/02/04 21:41:14;;;;;;;59.75;28.48;;;;;;;;;;5040754;28;20392;-65
2022/02/04 21:43:42;;;;;;;62.95;28.55;;;;;;;;;;5034472;28;20048;-65
2022/02/04 21:46:11;;;;;;;54.90;26.70;;;;;;;;;;5033549;28;20453;-65
2022/02/04 21:48:45;;;;;;;62.80;28.55;;;;;;;;;;5033747;28;20532;-67
2022/02/04 21:51:11;;;;;;;57.30;26.40;;;;;;;;;;5033576;28;20034;-65
2022/02/04 21:53:37;;;;;;;57.88;27.38;;;;;;;;;;5033250;28;20033;-64
2022/02/04 21:56:04;;;;;;;55.40;27.15;;;;;;;;;;5052544;28;20487;-65
2022/02/04 21:58:30;;;;;;;55.92;26.58;;;;;;;;;;5052736;28;20029;-65
2022/02/04 22:00:56;;;;;;;57.20;26.10;;;;;;;;;;5052882;28;20021;-65
2022/02/04 22:03:22;;;;;;;55.90;25.05;;;;;;;;;;5052414;28;20112;-65
2022/02/04 22:05:50;;;;;;;54.13;25.92;;;;;;;;;;5052383;28;20507;-65
2022/02/04 22:08:31;;;;;;;49.83;23.60;;;;;;;;;;5052592;28;20033;-64
2022/02/04 22:11:08;;;;;;;50.70;23.00;;;;;;;;;;5052560;28;20074;-64
2022/02/04 22:23:40;;;;;;;54.60;23.88;;;;;;;;;;5051811;28;20155;-65
2022/02/04 22:26:09;;;;;;;54.47;24.52;;;;;;;;;;5050988;28;20039;-64
2022/02/04 22:28:39;;;;;;;48.22;22.58;;;;;;;;;;5052101;28;20025;-65
2022/02/04 22:31:07;;;;;;;47.58;22.33;;;;;;;;;;5052468;28;20025;-65
2022/02/04 22:33:43;;;;;;;51.60;23.80;;;;;;;;;;5051989;28;20699;-65
2022/02/04 22:36:42;;;;;;;56.45;24.17;;;;;;;;;;5052225;28;20071;-64
2022/02/04 22:49:42;;;;;;;49.92;21.83;;;;;;;;;;5051577;28;20028;-65